sensor_id;sensor_type;location;lat;lon;timestamp;temperature;humidity
73576;DHT22;61859;49.204;8.140;2022-09-29T00:01:49;8.20;99.90
73576;DHT22;61859;49.204;8.140;2022-09-29T00:04:14;8.10;99.90
73576;DHT22;61859;49.204;8.140;2022-09-29T00:06:40;8.10;99.90
73576;DHT22;61859;49.204;8.140;2022-09-29T00:09:06;8.00;99.90
73576;DHT22;61859;49.204;8.140;2022-09-29T00:11:31;8.10;99.90
73576;DHT22;61859;49.204;8.140;2022-09-29T00:13:57;8.00;99.90
73576;DHT22;61859;49.204;8.140;2022-09-29T00:16:23;8.10;99.90
73576;DHT22;61859;49.204;8.140;2022-09-29T00:18:48;8.00;99.90
73576;DHT22;61859;49.204;8.140;2022-09-29T00:21:16;7.90;99.90
73576;DHT22;61859;49.204;8.140;2022-09-29T00:23:44;7.80;99.90
73576;DHT22;61859;49.204;8.140;2022-09-29T00:26:16;7.90;99.90
73576;DHT22;61859;49.204;8.140;2022-09-29T00:28:48;7.90;99.90
73576;DHT22;61859;49.204;8.140;2022-09-29T00:31:16;7.90;99.90
73576;DHT22;61859;49.204;8.140;2022-09-29T00:33:42;7.80;99.90
73576;DHT22;61859;49.204;8.140;2022-09-29T00:36:11;7.80;99.90
73576;DHT22;61859;49.204;8.140;2022-09-29T00:38:37;7.60;99.90
73576;DHT22;61859;49.204;8.140;2022-09-29T00:41:04;7.80;99.90
73576;DHT22;61859;49.204;8.140;2022-09-29T00:46:28;7.90;99.90
73576;DHT22;61859;49.204;8.140;2022-09-29T00:48:59;7.90;99.90
73576;DHT22;61859;49.204;8.140;2022-09-29T00:51:26;7.90;99.90
73576;DHT22;61859;49.204;8.140;2022-09-29T00:53:54;7.90;99.90
73576;DHT22;61859;49.204;8.140;2022-09-29T00:56:21;8.10;99.90
73576;DHT22;61859;49.204;8.140;2022-09-29T00:58:50;8.00;99.90
73576;DHT22;61859;49.204;8.140;2022-09-29T01:01:22;8.10;99.90
73576;DHT22;61859;49.204;8.140;2022-09-29T01:03:52;8.10;99.90
73576;DHT22;61859;49.204;8.140;2022-09-29T01:06:31;7.90;99.90
73576;DHT22;61859;49.204;8.140;2022-09-29T01:09:01;8.00;99.90
73576;DHT22;61859;49.204;8.140;2022-09-29T01:11:28;7.90;99.90
73576;DHT22;61859;49.204;8.140;2022-09-29T01:13:56;7.80;99.90
73576;DHT22;61859;49.204;8.140;2022-09-29T01:16:28;7.80;99.90
73576;DHT22;61859;49.204;8.140;2022-09-29T01:18:54;7.80;99.90
73576;DHT22;61859;49.204;8.140;2022-09-29T01:21:34;7.90;99.90
73576;DHT22;61859;49.204;8.140;2022-09-29T01:27:00;7.80;99.90
73576;DHT22;61859;49.204;8.140;2022-09-29T01:35:47;7.90;99.90
73576;DHT22;61859;49.204;8.140;2022-09-29T01:38:13;7.90;99.90
73576;DHT22;61859;49.204;8.140;2022-09-29T01:43:23;7.90;99.90
73576;DHT22;61859;49.204;8.140;2022-09-29T01:45:57;7.90;99.90
73576;DHT22;61859;49.204;8.140;2022-09-29T01:48:30;7.90;99.90
73576;DHT22;61859;49.204;8.140;2022-09-29T01:51:00;7.80;99.90
73576;DHT22;61859;49.204;8.140;2022-09-29T01:53:35;7.80;99.90
73576;DHT22;61859;49.204;8.140;2022-09-29T01:56:08;7.70;99.90
73576;DHT22;61859;49.204;8.140;2022-09-29T01:58:53;7.90;99.90
73576;DHT22;61859;49.204;8.140;2022-09-29T02:01:21;7.80;99.90
73576;DHT22;61859;49.204;8.140;2022-09-29T02:04:00;7.80;99.90
73576;DHT22;61859;49.204;8.140;2022-09-29T02:06:31;7.70;99.90
73576;DHT22;61859;49.204;8.140;2022-09-29T02:09:02;7.70;99.90
73576;DHT22;61859;49.204;8.140;2022-09-29T02:11:31;7.70;99.90
73576;DHT22;61859;49.204;8.140;2022-09-29T02:14:19;7.70;99.90
73576;DHT22;61859;49.204;8.140;2022-09-29T02:17:19;7.70;99.90
73576;DHT22;61859;49.204;8.140;2022-09-29T02:19:47;7.60;99.90
73576;DHT22;61859;49.204;8.140;2022-09-29T02:22:15;7.60;99.90
73576;DHT22;61859;49.204;8.140;2022-09-29T02:24:41;7.60;99.90
73576;DHT22;61859;49.204;8.140;2022-09-29T02:27:07;7.70;99.90
73576;DHT22;61859;49.204;8.140;2022-09-29T02:29:34;7.60;99.90
73576;DHT22;61859;49.204;8.140;2022-09-29T02:32:01;7.50;99.90
73576;DHT22;61859;49.204;8.140;2022-09-29T02:34:30;7.40;99.90
73576;DHT22;61859;49.204;8.140;2022-09-29T02:37:08;7.40;99.90
73576;DHT22;61859;49.204;8.140;2022-09-29T02:40:01;7.30;99.90
73576;DHT22;61859;49.204;8.140;2022-09-29T02:45:55;7.30;99.90
73576;DHT22;61859;49.204;8.140;2022-09-29T02:51:20;7.20;99.50
73576;DHT22;61859;49.204;8.140;2022-09-29T02:54:18;7.10;99.60
73576;DHT22;61859;49.204;8.140;2022-09-29T03:02:23;7.00;99.30
73576;DHT22;61859;49.204;8.140;2022-09-29T03:04:49;6.80;99.80
73576;DHT22;61859;49.204;8.140;2022-09-29T03:07:15;6.90;99.90
73576;DHT22;61859;49.204;8.140;2022-09-29T03:09:41;6.90;99.90
73576;DHT22;61859;49.204;8.140;2022-09-29T03:12:06;7.00;99.90
73576;DHT22;61859;49.204;8.140;2022-09-29T03:14:32;7.00;99.90
73576;DHT22;61859;49.204;8.140;2022-09-29T03:16:57;7.00;99.90
73576;DHT22;61859;49.204;8.140;2022-09-29T03:19:23;7.10;99.90
73576;DHT22;61859;49.204;8.140;2022-09-29T03:21:49;6.90;99.90
73576;DHT22;61859;49.204;8.140;2022-09-29T03:24:15;7.00;99.90
73576;DHT22;61859;49.204;8.140;2022-09-29T03:26:40;7.00;99.90
73576;DHT22;61859;49.204;8.140;2022-09-29T03:29:06;7.10;99.90
73576;DHT22;61859;49.204;8.140;2022-09-29T03:31:31;7.20;99.90
73576;DHT22;61859;49.204;8.140;2022-09-29T03:33:57;7.10;99.90
73576;DHT22;61859;49.204;8.140;2022-09-29T03:36:22;7.10;99.90
73576;DHT22;61859;49.204;8.140;2022-09-29T03:38:48;7.10;99.90
73576;DHT22;61859;49.204;8.140;2022-09-29T03:41:14;7.10;99.90
73576;DHT22;61859;49.204;8.140;2022-09-29T03:43:40;7.00;99.80
73576;DHT22;61859;49.204;8.140;2022-09-29T03:46:06;7.10;99.50
73576;DHT22;61859;49.204;8.140;2022-09-29T03:48:31;7.00;99.30
73576;DHT22;61859;49.204;8.140;2022-09-29T03:51:00;7.00;99.40
73576;DHT22;61859;49.204;8.140;2022-09-29T03:53:25;6.90;99.20
73576;DHT22;61859;49.204;8.140;2022-09-29T03:55:51;6.90;99.50
73576;DHT22;61859;49.204;8.140;2022-09-29T03:58:17;6.90;99.90
73576;DHT22;61859;49.204;8.140;2022-09-29T04:00:43;7.00;99.90
73576;DHT22;61859;49.204;8.140;2022-09-29T04:03:08;6.90;99.90
73576;DHT22;61859;49.204;8.140;2022-09-29T04:05:34;6.90;99.90
73576;DHT22;61859;49.204;8.140;2022-09-29T04:08:06;7.00;99.90
73576;DHT22;61859;49.204;8.140;2022-09-29T04:10:39;6.90;99.90
73576;DHT22;61859;49.204;8.140;2022-09-29T04:13:05;6.90;99.90
73576;DHT22;61859;49.204;8.140;2022-09-29T04:15:31;7.00;99.90
73576;DHT22;61859;49.204;8.140;2022-09-29T04:17:56;7.10;99.90
73576;DHT22;61859;49.204;8.140;2022-09-29T04:20:22;7.00;99.80
73576;DHT22;61859;49.204;8.140;2022-09-29T04:22:48;7.00;99.90
73576;DHT22;61859;49.204;8.140;2022-09-29T04:25:13;7.00;99.90
73576;DHT22;61859;49.204;8.140;2022-09-29T04:27:39;7.00;99.90
73576;DHT22;61859;49.204;8.140;2022-09-29T04:30:05;7.00;99.70
73576;DHT22;61859;49.204;8.140;2022-09-29T04:32:31;7.10;99.70
73576;DHT22;61859;49.204;8.140;2022-09-29T04:34:57;7.10;99.70
73576;DHT22;61859;49.204;8.140;2022-09-29T04:37:23;7.10;99.60
73576;DHT22;61859;49.204;8.140;2022-09-29T04:39:48;7.00;99.70
73576;DHT22;61859;49.204;8.140;2022-09-29T04:42:15;6.90;99.80
73576;DHT22;61859;49.204;8.140;2022-09-29T04:44:40;6.90;99.90
73576;DHT22;61859;49.204;8.140;2022-09-29T04:47:06;7.00;99.80
73576;DHT22;61859;49.204;8.140;2022-09-29T04:49:31;6.80;99.70
73576;DHT22;61859;49.204;8.140;2022-09-29T04:51:57;6.80;99.70
73576;DHT22;61859;49.204;8.140;2022-09-29T04:54:22;6.80;99.60
73576;DHT22;61859;49.204;8.140;2022-09-29T04:56:49;6.90;99.70
73576;DHT22;61859;49.204;8.140;2022-09-29T04:59:15;6.70;99.70
73576;DHT22;61859;49.204;8.140;2022-09-29T05:01:42;6.90;99.80
73576;DHT22;61859;49.204;8.140;2022-09-29T05:04:08;6.80;99.60
73576;DHT22;61859;49.204;8.140;2022-09-29T05:06:35;6.80;99.90
73576;DHT22;61859;49.204;8.140;2022-09-29T05:09:04;6.80;99.90
73576;DHT22;61859;49.204;8.140;2022-09-29T05:11:30;6.90;99.90
73576;DHT22;61859;49.204;8.140;2022-09-29T05:13:55;6.80;99.90
73576;DHT22;61859;49.204;8.140;2022-09-29T05:16:21;6.90;99.90
73576;DHT22;61859;49.204;8.140;2022-09-29T05:18:46;6.70;99.90
73576;DHT22;61859;49.204;8.140;2022-09-29T05:21:12;6.80;99.90
73576;DHT22;61859;49.204;8.140;2022-09-29T05:23:38;6.90;99.90
73576;DHT22;61859;49.204;8.140;2022-09-29T05:26:07;7.00;99.90
73576;DHT22;61859;49.204;8.140;2022-09-29T05:28:34;7.00;99.90
73576;DHT22;61859;49.204;8.140;2022-09-29T05:31:05;6.90;99.90
73576;DHT22;61859;49.204;8.140;2022-09-29T05:33:31;7.00;99.90
73576;DHT22;61859;49.204;8.140;2022-09-29T05:35:56;6.90;99.90
73576;DHT22;61859;49.204;8.140;2022-09-29T05:38:22;6.90;99.90
73576;DHT22;61859;49.204;8.140;2022-09-29T05:40:49;6.90;99.90
73576;DHT22;61859;49.204;8.140;2022-09-29T05:43:14;7.00;99.90
73576;DHT22;61859;49.204;8.140;2022-09-29T05:45:40;7.00;99.90
73576;DHT22;61859;49.204;8.140;2022-09-29T05:48:07;7.10;99.90
73576;DHT22;61859;49.204;8.140;2022-09-29T05:50:33;7.30;99.90
73576;DHT22;61859;49.204;8.140;2022-09-29T05:53:09;7.20;99.90
73576;DHT22;61859;49.204;8.140;2022-09-29T05:55:35;7.40;99.90
73576;DHT22;61859;49.204;8.140;2022-09-29T05:58:01;7.20;99.90
73576;DHT22;61859;49.204;8.140;2022-09-29T06:00:27;7.40;99.90
73576;DHT22;61859;49.204;8.140;2022-09-29T06:02:52;7.50;99.90
73576;DHT22;61859;49.204;8.140;2022-09-29T06:05:18;7.50;99.90
73576;DHT22;61859;49.204;8.140;2022-09-29T06:07:44;7.50;99.90
73576;DHT22;61859;49.204;8.140;2022-09-29T06:10:09;7.30;99.90
73576;DHT22;61859;49.204;8.140;2022-09-29T06:12:36;7.60;99.90
73576;DHT22;61859;49.204;8.140;2022-09-29T06:15:03;7.30;99.90
73576;DHT22;61859;49.204;8.140;2022-09-29T06:17:29;7.70;99.90
73576;DHT22;61859;49.204;8.140;2022-09-29T06:19:55;7.70;99.90
73576;DHT22;61859;49.204;8.140;2022-09-29T06:22:21;7.80;99.90
73576;DHT22;61859;49.204;8.140;2022-09-29T06:24:46;7.90;99.90
73576;DHT22;61859;49.204;8.140;2022-09-29T06:27:12;8.00;99.90
73576;DHT22;61859;49.204;8.140;2022-09-29T06:29:38;7.90;99.90
73576;DHT22;61859;49.204;8.140;2022-09-29T06:32:04;8.00;99.90
73576;DHT22;61859;49.204;8.140;2022-09-29T06:34:29;8.20;99.90
73576;DHT22;61859;49.204;8.140;2022-09-29T06:36:55;8.20;99.90
73576;DHT22;61859;49.204;8.140;2022-09-29T06:39:39;8.20;99.90
73576;DHT22;61859;49.204;8.140;2022-09-29T06:42:05;8.30;99.90
73576;DHT22;61859;49.204;8.140;2022-09-29T06:44:30;8.30;99.90
73576;DHT22;61859;49.204;8.140;2022-09-29T06:46:57;8.50;99.60
73576;DHT22;61859;49.204;8.140;2022-09-29T06:49:22;8.50;99.70
73576;DHT22;61859;49.204;8.140;2022-09-29T06:51:49;8.50;98.70
73576;DHT22;61859;49.204;8.140;2022-09-29T06:54:18;8.50;98.10
73576;DHT22;61859;49.204;8.140;2022-09-29T06:56:52;8.60;98.60
73576;DHT22;61859;49.204;8.140;2022-09-29T06:59:18;8.70;98.30
73576;DHT22;61859;49.204;8.140;2022-09-29T07:01:43;8.60;98.10
73576;DHT22;61859;49.204;8.140;2022-09-29T07:04:14;8.70;98.20
73576;DHT22;61859;49.204;8.140;2022-09-29T07:06:39;8.80;97.90
73576;DHT22;61859;49.204;8.140;2022-09-29T07:09:05;8.80;98.00
73576;DHT22;61859;49.204;8.140;2022-09-29T07:11:31;8.90;97.80
73576;DHT22;61859;49.204;8.140;2022-09-29T07:13:56;9.00;97.60
73576;DHT22;61859;49.204;8.140;2022-09-29T07:16:22;9.00;97.30
73576;DHT22;61859;49.204;8.140;2022-09-29T07:18:48;9.10;97.30
73576;DHT22;61859;49.204;8.140;2022-09-29T07:21:14;9.00;97.20
73576;DHT22;61859;49.204;8.140;2022-09-29T07:23:42;9.20;97.20
73576;DHT22;61859;49.204;8.140;2022-09-29T07:26:08;9.30;97.00
73576;DHT22;61859;49.204;8.140;2022-09-29T07:28:34;9.30;96.80
73576;DHT22;61859;49.204;8.140;2022-09-29T07:31:07;9.30;96.70
73576;DHT22;61859;49.204;8.140;2022-09-29T07:33:33;9.40;96.90
73576;DHT22;61859;49.204;8.140;2022-09-29T07:35:59;9.40;96.80
73576;DHT22;61859;49.204;8.140;2022-09-29T07:38:29;9.40;96.70
73576;DHT22;61859;49.204;8.140;2022-09-29T07:41:02;9.40;96.90
73576;DHT22;61859;49.204;8.140;2022-09-29T07:43:29;9.50;97.00
73576;DHT22;61859;49.204;8.140;2022-09-29T07:45:54;9.50;97.10
73576;DHT22;61859;49.204;8.140;2022-09-29T07:48:20;9.50;97.10
73576;DHT22;61859;49.204;8.140;2022-09-29T07:50:46;9.60;97.10
73576;DHT22;61859;49.204;8.140;2022-09-29T07:53:12;9.60;97.20
73576;DHT22;61859;49.204;8.140;2022-09-29T07:55:38;9.70;96.90
73576;DHT22;61859;49.204;8.140;2022-09-29T07:58:04;9.70;96.80
73576;DHT22;61859;49.204;8.140;2022-09-29T08:00:30;9.70;96.80
73576;DHT22;61859;49.204;8.140;2022-09-29T08:03:01;9.80;96.40
73576;DHT22;61859;49.204;8.140;2022-09-29T08:05:27;9.80;95.90
73576;DHT22;61859;49.204;8.140;2022-09-29T08:07:53;9.90;94.90
73576;DHT22;61859;49.204;8.140;2022-09-29T08:10:19;9.80;95.30
73576;DHT22;61859;49.204;8.140;2022-09-29T08:12:45;9.90;95.20
73576;DHT22;61859;49.204;8.140;2022-09-29T08:15:10;9.90;94.50
73576;DHT22;61859;49.204;8.140;2022-09-29T08:17:36;9.90;94.50
73576;DHT22;61859;49.204;8.140;2022-09-29T08:20:01;9.90;94.60
73576;DHT22;61859;49.204;8.140;2022-09-29T08:22:27;10.00;94.50
73576;DHT22;61859;49.204;8.140;2022-09-29T08:24:52;10.10;94.40
73576;DHT22;61859;49.204;8.140;2022-09-29T08:27:18;10.20;94.30
73576;DHT22;61859;49.204;8.140;2022-09-29T08:29:44;10.20;94.50
73576;DHT22;61859;49.204;8.140;2022-09-29T08:32:09;10.30;94.20
73576;DHT22;61859;49.204;8.140;2022-09-29T08:34:35;10.40;94.30
73576;DHT22;61859;49.204;8.140;2022-09-29T08:37:01;10.50;93.80
73576;DHT22;61859;49.204;8.140;2022-09-29T08:39:26;10.80;93.90
73576;DHT22;61859;49.204;8.140;2022-09-29T08:42:03;10.90;93.60
73576;DHT22;61859;49.204;8.140;2022-09-29T08:44:41;11.10;92.90
73576;DHT22;61859;49.204;8.140;2022-09-29T08:47:27;11.20;92.50
73576;DHT22;61859;49.204;8.140;2022-09-29T08:49:59;11.50;91.50
73576;DHT22;61859;49.204;8.140;2022-09-29T08:52:32;11.60;89.90
73576;DHT22;61859;49.204;8.140;2022-09-29T08:55:09;11.90;90.90
73576;DHT22;61859;49.204;8.140;2022-09-29T08:57:37;12.40;90.30
73576;DHT22;61859;49.204;8.140;2022-09-29T09:00:05;13.00;88.00
73576;DHT22;61859;49.204;8.140;2022-09-29T09:02:58;13.50;86.30
73576;DHT22;61859;49.204;8.140;2022-09-29T09:24:56;15.10;77.30
73576;DHT22;61859;49.204;8.140;2022-09-29T09:27:26;15.00;77.90
73576;DHT22;61859;49.204;8.140;2022-09-29T09:30:02;14.90;78.10
73576;DHT22;61859;49.204;8.140;2022-09-29T09:32:30;14.90;78.40
73576;DHT22;61859;49.204;8.140;2022-09-29T09:37:44;14.70;79.00
73576;DHT22;61859;49.204;8.140;2022-09-29T09:40:19;14.60;79.50
73576;DHT22;61859;49.204;8.140;2022-09-29T09:43:44;14.60;80.20
73576;DHT22;61859;49.204;8.140;2022-09-29T09:54:27;14.50;80.40
73576;DHT22;61859;49.204;8.140;2022-09-29T10:00:21;14.70;79.50
73576;DHT22;61859;49.204;8.140;2022-09-29T10:02:50;14.70;79.60
73576;DHT22;61859;49.204;8.140;2022-09-29T10:05:19;14.80;79.90
73576;DHT22;61859;49.204;8.140;2022-09-29T10:07:45;14.90;78.40
73576;DHT22;61859;49.204;8.140;2022-09-29T10:10:24;14.90;79.30
73576;DHT22;61859;49.204;8.140;2022-09-29T10:13:03;15.00;79.40
73576;DHT22;61859;49.204;8.140;2022-09-29T10:18:22;15.10;79.10
73576;DHT22;61859;49.204;8.140;2022-09-29T10:20:48;15.20;79.20
73576;DHT22;61859;49.204;8.140;2022-09-29T10:25:51;15.30;76.40
73576;DHT22;61859;49.204;8.140;2022-09-29T10:28:19;15.40;77.70
73576;DHT22;61859;49.204;8.140;2022-09-29T10:30:44;15.60;76.70
73576;DHT22;61859;49.204;8.140;2022-09-29T10:33:16;15.70;77.10
73576;DHT22;61859;49.204;8.140;2022-09-29T10:35:44;16.10;75.30
73576;DHT22;61859;49.204;8.140;2022-09-29T10:38:23;16.20;74.30
73576;DHT22;61859;49.204;8.140;2022-09-29T10:41:04;16.40;74.40
73576;DHT22;61859;49.204;8.140;2022-09-29T10:45:58;16.50;73.20
73576;DHT22;61859;49.204;8.140;2022-09-29T10:48:25;16.50;74.00
73576;DHT22;61859;49.204;8.140;2022-09-29T10:50:59;16.70;73.70
73576;DHT22;61859;49.204;8.140;2022-09-29T10:53:38;16.90;73.80
73576;DHT22;61859;49.204;8.140;2022-09-29T10:56:20;16.90;73.30
73576;DHT22;61859;49.204;8.140;2022-09-29T10:58:54;16.80;73.10
73576;DHT22;61859;49.204;8.140;2022-09-29T11:01:21;16.70;73.40
73576;DHT22;61859;49.204;8.140;2022-09-29T11:03:49;16.70;74.00
73576;DHT22;61859;49.204;8.140;2022-09-29T11:06:24;16.90;74.30
73576;DHT22;61859;49.204;8.140;2022-09-29T11:08:59;16.90;73.50
73576;DHT22;61859;49.204;8.140;2022-09-29T11:13:52;16.80;70.20
73576;DHT22;61859;49.204;8.140;2022-09-29T11:16:32;16.90;71.30
73576;DHT22;61859;49.204;8.140;2022-09-29T11:19:08;16.90;70.80
73576;DHT22;61859;49.204;8.140;2022-09-29T11:30:04;16.90;71.10
73576;DHT22;61859;49.204;8.140;2022-09-29T11:32:34;16.90;70.70
73576;DHT22;61859;49.204;8.140;2022-09-29T11:38:00;17.00;71.00
73576;DHT22;61859;49.204;8.140;2022-09-29T11:40:40;17.10;70.80
73576;DHT22;61859;49.204;8.140;2022-09-29T11:43:33;17.30;70.40
73576;DHT22;61859;49.204;8.140;2022-09-29T11:47:02;17.50;69.90
73576;DHT22;61859;49.204;8.140;2022-09-29T11:52:21;18.20;68.70
73576;DHT22;61859;49.204;8.140;2022-09-29T12:00:20;18.60;63.10
73576;DHT22;61859;49.204;8.140;2022-09-29T12:03:23;18.50;65.40
73576;DHT22;61859;49.204;8.140;2022-09-29T12:06:12;18.50;65.60
73576;DHT22;61859;49.204;8.140;2022-09-29T12:08:50;18.40;65.50
73576;DHT22;61859;49.204;8.140;2022-09-29T12:14:48;18.20;66.10
73576;DHT22;61859;49.204;8.140;2022-09-29T12:17:16;18.10;66.30
73576;DHT22;61859;49.204;8.140;2022-09-29T12:19:44;17.80;66.20
73576;DHT22;61859;49.204;8.140;2022-09-29T12:22:16;17.80;65.80
73576;DHT22;61859;49.204;8.140;2022-09-29T12:24:47;17.70;67.00
73576;DHT22;61859;49.204;8.140;2022-09-29T12:29:54;17.50;67.70
73576;DHT22;61859;49.204;8.140;2022-09-29T12:32:28;17.60;67.70
73576;DHT22;61859;49.204;8.140;2022-09-29T12:35:08;17.60;66.40
73576;DHT22;61859;49.204;8.140;2022-09-29T12:40:43;17.50;66.30
73576;DHT22;61859;49.204;8.140;2022-09-29T12:45:43;17.30;67.30
73576;DHT22;61859;49.204;8.140;2022-09-29T12:48:45;17.40;67.80
73576;DHT22;61859;49.204;8.140;2022-09-29T12:51:36;17.30;67.00
73576;DHT22;61859;49.204;8.140;2022-09-29T12:54:21;17.40;66.50
73576;DHT22;61859;49.204;8.140;2022-09-29T12:57:03;17.40;67.50
73576;DHT22;61859;49.204;8.140;2022-09-29T13:05:03;17.50;68.10
73576;DHT22;61859;49.204;8.140;2022-09-29T13:07:50;17.50;68.00
73576;DHT22;61859;49.204;8.140;2022-09-29T13:16:05;17.50;68.10
73576;DHT22;61859;49.204;8.140;2022-09-29T13:29:28;16.80;68.90
73576;DHT22;61859;49.204;8.140;2022-09-29T13:31:56;16.60;68.40
73576;DHT22;61859;49.204;8.140;2022-09-29T13:34:29;16.60;69.40
73576;DHT22;61859;49.204;8.140;2022-09-29T13:37:15;16.50;69.30
73576;DHT22;61859;49.204;8.140;2022-09-29T13:40:02;16.50;69.00
73576;DHT22;61859;49.204;8.140;2022-09-29T13:47:48;16.40;70.40
73576;DHT22;61859;49.204;8.140;2022-09-29T13:50:40;16.30;69.80
73576;DHT22;61859;49.204;8.140;2022-09-29T14:01:32;15.90;72.20
73576;DHT22;61859;49.204;8.140;2022-09-29T14:06:26;15.90;72.40
73576;DHT22;61859;49.204;8.140;2022-09-29T14:09:06;15.70;72.40
73576;DHT22;61859;49.204;8.140;2022-09-29T14:11:37;15.70;72.30
73576;DHT22;61859;49.204;8.140;2022-09-29T14:14:20;15.60;72.30
73576;DHT22;61859;49.204;8.140;2022-09-29T14:27:46;15.20;74.90
73576;DHT22;61859;49.204;8.140;2022-09-29T14:33:10;15.20;74.70
73576;DHT22;61859;49.204;8.140;2022-09-29T14:35:38;15.30;75.50
73576;DHT22;61859;49.204;8.140;2022-09-29T14:38:18;15.20;74.70
73576;DHT22;61859;49.204;8.140;2022-09-29T14:43:53;15.10;75.20
73576;DHT22;61859;49.204;8.140;2022-09-29T14:49:37;15.00;75.60
73576;DHT22;61859;49.204;8.140;2022-09-29T14:55:18;14.90;76.70
73576;DHT22;61859;49.204;8.140;2022-09-29T15:03:25;14.80;74.20
73576;DHT22;61859;49.204;8.140;2022-09-29T15:06:13;14.60;76.20
73576;DHT22;61859;49.204;8.140;2022-09-29T15:08:40;14.50;78.60
73576;DHT22;61859;49.204;8.140;2022-09-29T15:11:31;14.40;81.00
73576;DHT22;61859;49.204;8.140;2022-09-29T15:14:00;14.30;81.90
73576;DHT22;61859;49.204;8.140;2022-09-29T15:16:41;14.20;83.00
73576;DHT22;61859;49.204;8.140;2022-09-29T15:19:35;14.10;84.40
73576;DHT22;61859;49.204;8.140;2022-09-29T15:25:34;13.70;86.10
73576;DHT22;61859;49.204;8.140;2022-09-29T15:28:37;13.60;87.80
73576;DHT22;61859;49.204;8.140;2022-09-29T15:31:05;13.30;88.60
73576;DHT22;61859;49.204;8.140;2022-09-29T15:33:36;13.20;90.10
73576;DHT22;61859;49.204;8.140;2022-09-29T15:36:05;13.00;91.60
73576;DHT22;61859;49.204;8.140;2022-09-29T15:38:36;12.90;92.20
73576;DHT22;61859;49.204;8.140;2022-09-29T15:46:21;12.40;93.90
73576;DHT22;61859;49.204;8.140;2022-09-29T15:51:33;11.90;96.50
73576;DHT22;61859;49.204;8.140;2022-09-29T15:54:01;12.00;96.90
73576;DHT22;61859;49.204;8.140;2022-09-29T15:56:32;11.70;97.40
73576;DHT22;61859;49.204;8.140;2022-09-29T15:58:57;11.60;97.70
73576;DHT22;61859;49.204;8.140;2022-09-29T16:01:24;11.50;98.10
73576;DHT22;61859;49.204;8.140;2022-09-29T16:03:54;11.50;98.60
73576;DHT22;61859;49.204;8.140;2022-09-29T16:06:32;11.60;98.50
73576;DHT22;61859;49.204;8.140;2022-09-29T16:09:02;11.40;99.00
73576;DHT22;61859;49.204;8.140;2022-09-29T16:11:36;11.40;99.00
73576;DHT22;61859;49.204;8.140;2022-09-29T16:14:10;11.30;98.70
73576;DHT22;61859;49.204;8.140;2022-09-29T16:16:44;11.30;98.60
73576;DHT22;61859;49.204;8.140;2022-09-29T16:19:23;11.10;98.60
73576;DHT22;61859;49.204;8.140;2022-09-29T16:21:57;11.10;99.10
73576;DHT22;61859;49.204;8.140;2022-09-29T16:24:30;10.90;99.20
73576;DHT22;61859;49.204;8.140;2022-09-29T16:26:57;11.00;99.50
73576;DHT22;61859;49.204;8.140;2022-09-29T16:29:33;11.00;99.60
73576;DHT22;61859;49.204;8.140;2022-09-29T16:40:51;11.00;99.50
73576;DHT22;61859;49.204;8.140;2022-09-29T16:43:25;10.90;99.60
73576;DHT22;61859;49.204;8.140;2022-09-29T16:45:53;11.00;99.80
73576;DHT22;61859;49.204;8.140;2022-09-29T16:48:25;11.00;99.80
73576;DHT22;61859;49.204;8.140;2022-09-29T16:50:56;10.80;99.90
73576;DHT22;61859;49.204;8.140;2022-09-29T16:53:28;10.80;99.90
73576;DHT22;61859;49.204;8.140;2022-09-29T16:56:09;10.90;99.90
73576;DHT22;61859;49.204;8.140;2022-09-29T16:58:35;10.80;99.90
73576;DHT22;61859;49.204;8.140;2022-09-29T17:01:02;10.80;99.90
73576;DHT22;61859;49.204;8.140;2022-09-29T17:03:28;10.80;99.90
73576;DHT22;61859;49.204;8.140;2022-09-29T17:05:56;10.70;99.90
73576;DHT22;61859;49.204;8.140;2022-09-29T17:08:26;10.90;99.90
73576;DHT22;61859;49.204;8.140;2022-09-29T17:10:55;10.80;99.90
73576;DHT22;61859;49.204;8.140;2022-09-29T17:13:22;10.80;99.90
73576;DHT22;61859;49.204;8.140;2022-09-29T17:15:50;10.80;99.90
73576;DHT22;61859;49.204;8.140;2022-09-29T17:18:17;10.80;99.90
73576;DHT22;61859;49.204;8.140;2022-09-29T17:20:43;10.70;99.90
73576;DHT22;61859;49.204;8.140;2022-09-29T17:23:09;10.70;99.90
73576;DHT22;61859;49.204;8.140;2022-09-29T17:25:37;10.60;99.90
73576;DHT22;61859;49.204;8.140;2022-09-29T17:28:15;10.60;99.90
73576;DHT22;61859;49.204;8.140;2022-09-29T17:30:45;10.50;99.90
73576;DHT22;61859;49.204;8.140;2022-09-29T17:33:13;10.50;99.90
73576;DHT22;61859;49.204;8.140;2022-09-29T17:35:45;10.40;99.90
73576;DHT22;61859;49.204;8.140;2022-09-29T17:38:12;10.30;99.90
73576;DHT22;61859;49.204;8.140;2022-09-29T17:40:58;10.20;99.90
73576;DHT22;61859;49.204;8.140;2022-09-29T17:43:26;10.10;99.90
73576;DHT22;61859;49.204;8.140;2022-09-29T17:45:54;10.10;99.90
73576;DHT22;61859;49.204;8.140;2022-09-29T17:48:21;10.10;99.90
73576;DHT22;61859;49.204;8.140;2022-09-29T17:50:48;10.10;99.90
73576;DHT22;61859;49.204;8.140;2022-09-29T17:53:15;10.10;99.90
73576;DHT22;61859;49.204;8.140;2022-09-29T17:55:42;10.10;99.90
73576;DHT22;61859;49.204;8.140;2022-09-29T17:58:13;10.10;99.90
73576;DHT22;61859;49.204;8.140;2022-09-29T18:00:43;10.00;99.90
73576;DHT22;61859;49.204;8.140;2022-09-29T18:03:11;10.10;99.90
73576;DHT22;61859;49.204;8.140;2022-09-29T18:05:43;10.10;99.90
73576;DHT22;61859;49.204;8.140;2022-09-29T18:08:18;10.20;99.90
73576;DHT22;61859;49.204;8.140;2022-09-29T18:10:51;10.10;99.90
73576;DHT22;61859;49.204;8.140;2022-09-29T18:13:18;10.10;99.90
73576;DHT22;61859;49.204;8.140;2022-09-29T18:15:44;10.10;99.90
73576;DHT22;61859;49.204;8.140;2022-09-29T18:18:12;10.10;99.90
73576;DHT22;61859;49.204;8.140;2022-09-29T18:20:40;10.10;99.90
73576;DHT22;61859;49.204;8.140;2022-09-29T18:23:06;10.10;99.90
73576;DHT22;61859;49.204;8.140;2022-09-29T18:25:32;10.10;99.90
73576;DHT22;61859;49.204;8.140;2022-09-29T18:27:59;10.10;99.90
73576;DHT22;61859;49.204;8.140;2022-09-29T18:30:27;10.10;99.90
73576;DHT22;61859;49.204;8.140;2022-09-29T18:32:54;10.20;99.90
73576;DHT22;61859;49.204;8.140;2022-09-29T18:35:27;10.20;99.90
73576;DHT22;61859;49.204;8.140;2022-09-29T18:37:53;10.30;99.90
73576;DHT22;61859;49.204;8.140;2022-09-29T18:40:19;10.30;99.90
73576;DHT22;61859;49.204;8.140;2022-09-29T18:42:47;10.20;99.90
73576;DHT22;61859;49.204;8.140;2022-09-29T18:45:17;10.20;99.90
73576;DHT22;61859;49.204;8.140;2022-09-29T18:47:53;10.30;99.90
73576;DHT22;61859;49.204;8.140;2022-09-29T18:50:22;10.40;99.90
73576;DHT22;61859;49.204;8.140;2022-09-29T18:52:49;10.40;99.90
73576;DHT22;61859;49.204;8.140;2022-09-29T18:55:20;10.30;99.90
73576;DHT22;61859;49.204;8.140;2022-09-29T18:57:47;10.40;99.90
73576;DHT22;61859;49.204;8.140;2022-09-29T19:00:19;10.40;99.90
73576;DHT22;61859;49.204;8.140;2022-09-29T19:02:45;10.40;99.90
73576;DHT22;61859;49.204;8.140;2022-09-29T19:05:14;10.40;99.90
73576;DHT22;61859;49.204;8.140;2022-09-29T19:07:43;10.40;99.90